KCOU

Columbia Regional Airport

Columbia, Missouri, USA
METAR KCOU 171754Z 34008KT 10SM CLR 17/02 A3043 RMK AO2 SLP305 T01720017 10183 20039 51006
Observed Flight Rules
Oct-17 @ 17:54 UTC (32 minutes ago) Visual Flight Rules
Wind Visibility Clouds
340° at 8 knots 10 miles
  • Clear skies
Temperatures Readings
Current 17°C / 63°F
Dewpoint 2°C / 36°F
Humidity 37%
Altimeter 30.43" Hg
Pressure 1030.5 hPa
Elevation 271
METAR KCOU 171754Z 34008KT 10SM CLR 17/02 A3043 RMK AO2 SLP305 T01720017 10183 20039 51006
Observed Flight Rules
Oct-17 @ 17:54 UTC
(32 minutes ago)
VFR
Wind Visibility
340° at 8 knots 10 miles
Clouds
  • Clear skies
Temperature Dewpoint
17°C / 63°F 2°C / 36°F
Humidity Altimeter Pressure
37% 30.43" Hg 1030.5 hPa